sensor_id;sensor_type;location;lat;lon;timestamp;P1;durP1;ratioP1;P2;durP2;ratioP2
16979;SDS011;42288;52.182;21.156;2023-05-29T00:00:12;13.03;;;5.23;;
16979;SDS011;42288;52.182;21.156;2023-05-29T00:02:42;14.13;;;5.70;;
16979;SDS011;42288;52.182;21.156;2023-05-29T00:05:09;12.97;;;5.33;;
16979;SDS011;42288;52.182;21.156;2023-05-29T00:07:37;15.27;;;5.83;;
16979;SDS011;42288;52.182;21.156;2023-05-29T00:10:04;17.07;;;5.63;;
16979;SDS011;42288;52.182;21.156;2023-05-29T00:12:30;12.13;;;5.63;;
16979;SDS011;42288;52.182;21.156;2023-05-29T00:14:56;14.47;;;5.60;;
16979;SDS011;42288;52.182;21.156;2023-05-29T00:17:22;16.17;;;5.40;;
16979;SDS011;42288;52.182;21.156;2023-05-29T00:19:48;10.40;;;5.00;;
16979;SDS011;42288;52.182;21.156;2023-05-29T00:22:14;8.80;;;5.07;;
16979;SDS011;42288;52.182;21.156;2023-05-29T00:24:39;11.33;;;6.00;;
16979;SDS011;42288;52.182;21.156;2023-05-29T00:27:05;10.17;;;5.50;;
16979;SDS011;42288;52.182;21.156;2023-05-29T00:29:31;12.87;;;5.43;;
16979;SDS011;42288;52.182;21.156;2023-05-29T00:31:56;11.20;;;5.50;;
16979;SDS011;42288;52.182;21.156;2023-05-29T00:34:22;11.23;;;5.47;;
16979;SDS011;42288;52.182;21.156;2023-05-29T00:36:48;9.17;;;5.40;;
16979;SDS011;42288;52.182;21.156;2023-05-29T00:39:14;13.60;;;5.73;;
16979;SDS011;42288;52.182;21.156;2023-05-29T00:41:40;15.97;;;5.60;;
16979;SDS011;42288;52.182;21.156;2023-05-29T00:44:05;10.67;;;5.50;;
16979;SDS011;42288;52.182;21.156;2023-05-29T00:46:31;11.63;;;5.67;;
16979;SDS011;42288;52.182;21.156;2023-05-29T00:49:01;13.37;;;5.83;;
16979;SDS011;42288;52.182;21.156;2023-05-29T00:51:27;13.07;;;5.97;;
16979;SDS011;42288;52.182;21.156;2023-05-29T00:53:54;14.30;;;5.60;;
16979;SDS011;42288;52.182;21.156;2023-05-29T00:56:20;12.57;;;5.80;;
16979;SDS011;42288;52.182;21.156;2023-05-29T00:58:47;14.33;;;5.50;;
16979;SDS011;42288;52.182;21.156;2023-05-29T01:01:15;10.13;;;5.30;;
16979;SDS011;42288;52.182;21.156;2023-05-29T01:03:42;8.97;;;5.07;;
16979;SDS011;42288;52.182;21.156;2023-05-29T01:06:08;10.73;;;5.53;;
16979;SDS011;42288;52.182;21.156;2023-05-29T01:08:35;10.47;;;5.47;;
16979;SDS011;42288;52.182;21.156;2023-05-29T01:11:05;13.57;;;6.03;;
16979;SDS011;42288;52.182;21.156;2023-05-29T01:13:41;10.80;;;5.80;;
16979;SDS011;42288;52.182;21.156;2023-05-29T01:16:16;9.53;;;5.23;;
16979;SDS011;42288;52.182;21.156;2023-05-29T01:18:57;16.80;;;6.90;;
16979;SDS011;42288;52.182;21.156;2023-05-29T01:27:09;17.80;;;8.93;;
16979;SDS011;42288;52.182;21.156;2023-05-29T01:29:36;15.37;;;8.20;;
16979;SDS011;42288;52.182;21.156;2023-05-29T01:32:03;15.33;;;7.87;;
16979;SDS011;42288;52.182;21.156;2023-05-29T01:34:30;15.57;;;8.70;;
16979;SDS011;42288;52.182;21.156;2023-05-29T01:36:56;21.27;;;8.63;;
16979;SDS011;42288;52.182;21.156;2023-05-29T01:39:21;15.10;;;7.53;;
16979;SDS011;42288;52.182;21.156;2023-05-29T01:41:49;17.63;;;9.00;;
16979;SDS011;42288;52.182;21.156;2023-05-29T01:44:15;17.53;;;8.73;;
16979;SDS011;42288;52.182;21.156;2023-05-29T01:46:42;18.87;;;9.40;;
16979;SDS011;42288;52.182;21.156;2023-05-29T01:49:09;18.87;;;9.97;;
16979;SDS011;42288;52.182;21.156;2023-05-29T01:51:36;17.30;;;9.10;;
16979;SDS011;42288;52.182;21.156;2023-05-29T01:54:02;17.90;;;8.83;;
16979;SDS011;42288;52.182;21.156;2023-05-29T01:56:29;17.13;;;8.90;;
16979;SDS011;42288;52.182;21.156;2023-05-29T01:58:55;17.63;;;9.67;;
16979;SDS011;42288;52.182;21.156;2023-05-29T02:01:22;17.83;;;8.87;;
16979;SDS011;42288;52.182;21.156;2023-05-29T02:03:48;19.10;;;9.63;;
16979;SDS011;42288;52.182;21.156;2023-05-29T02:06:14;15.60;;;9.10;;
16979;SDS011;42288;52.182;21.156;2023-05-29T02:08:40;18.37;;;9.47;;
16979;SDS011;42288;52.182;21.156;2023-05-29T02:11:05;15.30;;;8.80;;
16979;SDS011;42288;52.182;21.156;2023-05-29T02:13:31;17.53;;;8.63;;
16979;SDS011;42288;52.182;21.156;2023-05-29T02:15:57;18.90;;;8.87;;
16979;SDS011;42288;52.182;21.156;2023-05-29T02:18:23;21.47;;;9.40;;
16979;SDS011;42288;52.182;21.156;2023-05-29T02:20:49;18.23;;;9.17;;
16979;SDS011;42288;52.182;21.156;2023-05-29T02:23:14;15.50;;;8.77;;
16979;SDS011;42288;52.182;21.156;2023-05-29T02:25:40;15.17;;;8.00;;
16979;SDS011;42288;52.182;21.156;2023-05-29T02:28:06;17.93;;;9.80;;
16979;SDS011;42288;52.182;21.156;2023-05-29T02:30:32;18.70;;;8.67;;
16979;SDS011;42288;52.182;21.156;2023-05-29T02:32:58;18.47;;;8.93;;
16979;SDS011;42288;52.182;21.156;2023-05-29T02:35:24;15.93;;;9.20;;
16979;SDS011;42288;52.182;21.156;2023-05-29T02:37:50;14.10;;;7.87;;
16979;SDS011;42288;52.182;21.156;2023-05-29T02:40:16;17.03;;;9.37;;
16979;SDS011;42288;52.182;21.156;2023-05-29T02:42:42;15.10;;;8.40;;
16979;SDS011;42288;52.182;21.156;2023-05-29T02:45:08;16.33;;;8.13;;
16979;SDS011;42288;52.182;21.156;2023-05-29T02:47:34;18.30;;;8.83;;
16979;SDS011;42288;52.182;21.156;2023-05-29T02:50:00;16.27;;;8.03;;
16979;SDS011;42288;52.182;21.156;2023-05-29T02:52:26;16.60;;;8.20;;
16979;SDS011;42288;52.182;21.156;2023-05-29T02:54:52;16.67;;;8.90;;
16979;SDS011;42288;52.182;21.156;2023-05-29T02:57:19;15.50;;;8.50;;
16979;SDS011;42288;52.182;21.156;2023-05-29T02:59:45;16.03;;;8.27;;
16979;SDS011;42288;52.182;21.156;2023-05-29T03:02:11;13.37;;;8.10;;
16979;SDS011;42288;52.182;21.156;2023-05-29T03:04:36;13.97;;;7.50;;
16979;SDS011;42288;52.182;21.156;2023-05-29T03:07:02;15.43;;;8.17;;
16979;SDS011;42288;52.182;21.156;2023-05-29T03:09:28;15.30;;;8.43;;
16979;SDS011;42288;52.182;21.156;2023-05-29T03:11:53;17.83;;;8.47;;
16979;SDS011;42288;52.182;21.156;2023-05-29T03:14:19;14.63;;;7.63;;
16979;SDS011;42288;52.182;21.156;2023-05-29T03:16:46;15.33;;;7.27;;
16979;SDS011;42288;52.182;21.156;2023-05-29T03:19:12;13.37;;;7.80;;
16979;SDS011;42288;52.182;21.156;2023-05-29T03:21:38;13.83;;;7.87;;
16979;SDS011;42288;52.182;21.156;2023-05-29T03:24:03;13.27;;;7.23;;
16979;SDS011;42288;52.182;21.156;2023-05-29T03:26:29;17.50;;;8.57;;
16979;SDS011;42288;52.182;21.156;2023-05-29T03:28:55;15.30;;;7.87;;
16979;SDS011;42288;52.182;21.156;2023-05-29T03:31:20;16.27;;;7.83;;
16979;SDS011;42288;52.182;21.156;2023-05-29T03:33:46;15.80;;;8.30;;
16979;SDS011;42288;52.182;21.156;2023-05-29T03:36:13;16.33;;;7.93;;
16979;SDS011;42288;52.182;21.156;2023-05-29T03:38:38;12.63;;;7.63;;
16979;SDS011;42288;52.182;21.156;2023-05-29T03:41:04;15.23;;;7.90;;
16979;SDS011;42288;52.182;21.156;2023-05-29T03:43:30;13.50;;;7.60;;
16979;SDS011;42288;52.182;21.156;2023-05-29T03:45:55;17.40;;;8.13;;
16979;SDS011;42288;52.182;21.156;2023-05-29T03:48:21;20.33;;;7.80;;
16979;SDS011;42288;52.182;21.156;2023-05-29T03:50:47;14.97;;;7.40;;
16979;SDS011;42288;52.182;21.156;2023-05-29T03:53:12;12.23;;;6.77;;
16979;SDS011;42288;52.182;21.156;2023-05-29T03:55:38;12.53;;;6.60;;
16979;SDS011;42288;52.182;21.156;2023-05-29T03:58:04;15.03;;;6.93;;
16979;SDS011;42288;52.182;21.156;2023-05-29T04:00:29;16.40;;;6.57;;
16979;SDS011;42288;52.182;21.156;2023-05-29T04:02:55;11.47;;;5.77;;
16979;SDS011;42288;52.182;21.156;2023-05-29T04:05:21;13.60;;;6.13;;
16979;SDS011;42288;52.182;21.156;2023-05-29T04:07:48;10.63;;;6.03;;
16979;SDS011;42288;52.182;21.156;2023-05-29T04:10:14;10.90;;;5.50;;
16979;SDS011;42288;52.182;21.156;2023-05-29T04:12:40;13.37;;;5.57;;
16979;SDS011;42288;52.182;21.156;2023-05-29T04:15:06;11.37;;;5.70;;
16979;SDS011;42288;52.182;21.156;2023-05-29T04:17:32;12.13;;;6.77;;
16979;SDS011;42288;52.182;21.156;2023-05-29T04:19:57;11.30;;;6.10;;
16979;SDS011;42288;52.182;21.156;2023-05-29T04:22:23;13.80;;;6.33;;
16979;SDS011;42288;52.182;21.156;2023-05-29T04:24:49;11.13;;;6.03;;
16979;SDS011;42288;52.182;21.156;2023-05-29T04:27:14;15.40;;;6.50;;
16979;SDS011;42288;52.182;21.156;2023-05-29T04:29:43;13.63;;;6.50;;
16979;SDS011;42288;52.182;21.156;2023-05-29T04:32:09;10.73;;;6.13;;
16979;SDS011;42288;52.182;21.156;2023-05-29T04:34:36;12.30;;;6.00;;
16979;SDS011;42288;52.182;21.156;2023-05-29T04:37:05;12.40;;;6.40;;
16979;SDS011;42288;52.182;21.156;2023-05-29T04:39:30;12.13;;;6.87;;
16979;SDS011;42288;52.182;21.156;2023-05-29T04:41:57;10.23;;;6.13;;
16979;SDS011;42288;52.182;21.156;2023-05-29T04:44:23;15.03;;;6.63;;
16979;SDS011;42288;52.182;21.156;2023-05-29T04:46:52;12.70;;;6.97;;
16979;SDS011;42288;52.182;21.156;2023-05-29T04:49:18;12.97;;;7.10;;
16979;SDS011;42288;52.182;21.156;2023-05-29T04:51:45;11.70;;;6.33;;
16979;SDS011;42288;52.182;21.156;2023-05-29T04:54:11;15.43;;;7.33;;
16979;SDS011;42288;52.182;21.156;2023-05-29T04:56:37;12.17;;;6.70;;
16979;SDS011;42288;52.182;21.156;2023-05-29T04:59:05;12.90;;;6.43;;
16979;SDS011;42288;52.182;21.156;2023-05-29T05:01:31;11.43;;;6.63;;
16979;SDS011;42288;52.182;21.156;2023-05-29T05:03:58;11.57;;;6.67;;
16979;SDS011;42288;52.182;21.156;2023-05-29T05:06:24;12.87;;;6.10;;
16979;SDS011;42288;52.182;21.156;2023-05-29T05:08:51;12.77;;;5.20;;
16979;SDS011;42288;52.182;21.156;2023-05-29T05:11:18;9.63;;;5.17;;
16979;SDS011;42288;52.182;21.156;2023-05-29T05:13:43;15.37;;;5.70;;
16979;SDS011;42288;52.182;21.156;2023-05-29T05:16:09;10.03;;;4.10;;
16979;SDS011;42288;52.182;21.156;2023-05-29T05:18:35;9.53;;;5.60;;
16979;SDS011;42288;52.182;21.156;2023-05-29T05:21:01;15.43;;;4.87;;
16979;SDS011;42288;52.182;21.156;2023-05-29T05:23:29;11.00;;;5.10;;
16979;SDS011;42288;52.182;21.156;2023-05-29T05:25:55;11.23;;;4.70;;
16979;SDS011;42288;52.182;21.156;2023-05-29T05:28:20;8.03;;;4.43;;
16979;SDS011;42288;52.182;21.156;2023-05-29T05:30:46;11.27;;;4.37;;
16979;SDS011;42288;52.182;21.156;2023-05-29T05:33:12;9.10;;;3.67;;
16979;SDS011;42288;52.182;21.156;2023-05-29T05:35:37;12.07;;;4.07;;
16979;SDS011;42288;52.182;21.156;2023-05-29T05:38:03;11.57;;;4.57;;
16979;SDS011;42288;52.182;21.156;2023-05-29T05:40:29;10.60;;;4.30;;
16979;SDS011;42288;52.182;21.156;2023-05-29T05:42:54;11.40;;;4.27;;
16979;SDS011;42288;52.182;21.156;2023-05-29T05:45:20;11.70;;;4.30;;
16979;SDS011;42288;52.182;21.156;2023-05-29T05:47:46;11.37;;;4.77;;
16979;SDS011;42288;52.182;21.156;2023-05-29T05:50:12;10.23;;;5.37;;
16979;SDS011;42288;52.182;21.156;2023-05-29T05:52:38;17.83;;;5.10;;
16979;SDS011;42288;52.182;21.156;2023-05-29T05:55:04;10.80;;;4.60;;
16979;SDS011;42288;52.182;21.156;2023-05-29T05:57:30;13.03;;;4.43;;
16979;SDS011;42288;52.182;21.156;2023-05-29T06:00:01;16.90;;;5.00;;
16979;SDS011;42288;52.182;21.156;2023-05-29T06:02:35;12.80;;;5.17;;
16979;SDS011;42288;52.182;21.156;2023-05-29T06:05:01;15.37;;;5.00;;
16979;SDS011;42288;52.182;21.156;2023-05-29T06:07:28;12.87;;;4.13;;
16979;SDS011;42288;52.182;21.156;2023-05-29T06:09:54;12.37;;;3.60;;
16979;SDS011;42288;52.182;21.156;2023-05-29T06:12:20;15.10;;;3.50;;
16979;SDS011;42288;52.182;21.156;2023-05-29T06:14:46;21.43;;;4.13;;
16979;SDS011;42288;52.182;21.156;2023-05-29T06:17:11;10.10;;;2.93;;
16979;SDS011;42288;52.182;21.156;2023-05-29T06:19:38;10.70;;;3.67;;
16979;SDS011;42288;52.182;21.156;2023-05-29T06:22:03;8.80;;;3.17;;
16979;SDS011;42288;52.182;21.156;2023-05-29T06:24:30;6.97;;;3.20;;
16979;SDS011;42288;52.182;21.156;2023-05-29T06:26:55;5.30;;;2.63;;
16979;SDS011;42288;52.182;21.156;2023-05-29T06:29:21;9.93;;;2.90;;
16979;SDS011;42288;52.182;21.156;2023-05-29T06:31:47;8.80;;;2.83;;
16979;SDS011;42288;52.182;21.156;2023-05-29T06:34:12;8.57;;;3.37;;
16979;SDS011;42288;52.182;21.156;2023-05-29T06:36:38;6.50;;;2.93;;
16979;SDS011;42288;52.182;21.156;2023-05-29T06:39:05;15.47;;;3.13;;
16979;SDS011;42288;52.182;21.156;2023-05-29T06:41:30;10.67;;;2.97;;
16979;SDS011;42288;52.182;21.156;2023-05-29T06:43:56;7.27;;;3.10;;
16979;SDS011;42288;52.182;21.156;2023-05-29T06:46:21;7.80;;;2.27;;
16979;SDS011;42288;52.182;21.156;2023-05-29T06:48:47;5.43;;;2.00;;
16979;SDS011;42288;52.182;21.156;2023-05-29T06:51:13;5.33;;;2.50;;
16979;SDS011;42288;52.182;21.156;2023-05-29T06:53:38;11.77;;;2.27;;
16979;SDS011;42288;52.182;21.156;2023-05-29T06:56:04;14.43;;;2.23;;
16979;SDS011;42288;52.182;21.156;2023-05-29T06:58:30;8.43;;;2.33;;
16979;SDS011;42288;52.182;21.156;2023-05-29T07:00:56;5.20;;;2.30;;
16979;SDS011;42288;52.182;21.156;2023-05-29T07:03:25;12.60;;;2.20;;
16979;SDS011;42288;52.182;21.156;2023-05-29T07:05:51;9.77;;;2.20;;
16979;SDS011;42288;52.182;21.156;2023-05-29T07:08:17;5.80;;;1.77;;
16979;SDS011;42288;52.182;21.156;2023-05-29T07:10:43;5.33;;;1.70;;
16979;SDS011;42288;52.182;21.156;2023-05-29T07:13:09;9.27;;;1.97;;
16979;SDS011;42288;52.182;21.156;2023-05-29T07:15:34;5.03;;;1.50;;
16979;SDS011;42288;52.182;21.156;2023-05-29T07:18:00;5.37;;;1.33;;
16979;SDS011;42288;52.182;21.156;2023-05-29T07:20:25;5.67;;;1.60;;
16979;SDS011;42288;52.182;21.156;2023-05-29T07:22:51;5.77;;;1.80;;
16979;SDS011;42288;52.182;21.156;2023-05-29T07:25:17;9.87;;;1.93;;
16979;SDS011;42288;52.182;21.156;2023-05-29T07:27:42;3.13;;;1.47;;
16979;SDS011;42288;52.182;21.156;2023-05-29T07:30:08;6.10;;;1.80;;
16979;SDS011;42288;52.182;21.156;2023-05-29T07:32:34;6.40;;;1.50;;
16979;SDS011;42288;52.182;21.156;2023-05-29T07:35:00;10.57;;;1.80;;
16979;SDS011;42288;52.182;21.156;2023-05-29T07:37:25;9.27;;;2.00;;
16979;SDS011;42288;52.182;21.156;2023-05-29T07:39:51;3.23;;;1.80;;
16979;SDS011;42288;52.182;21.156;2023-05-29T07:42:16;7.93;;;1.80;;
16979;SDS011;42288;52.182;21.156;2023-05-29T07:44:42;7.07;;;1.80;;
16979;SDS011;42288;52.182;21.156;2023-05-29T07:47:08;7.60;;;2.00;;
16979;SDS011;42288;52.182;21.156;2023-05-29T07:49:34;5.30;;;2.27;;
16979;SDS011;42288;52.182;21.156;2023-05-29T07:52:01;6.77;;;1.70;;
16979;SDS011;42288;52.182;21.156;2023-05-29T07:54:27;9.20;;;2.00;;
16979;SDS011;42288;52.182;21.156;2023-05-29T07:56:53;7.33;;;1.40;;
16979;SDS011;42288;52.182;21.156;2023-05-29T07:59:20;4.87;;;1.70;;
16979;SDS011;42288;52.182;21.156;2023-05-29T08:01:46;6.17;;;1.73;;
16979;SDS011;42288;52.182;21.156;2023-05-29T08:04:12;10.33;;;1.73;;
16979;SDS011;42288;52.182;21.156;2023-05-29T08:06:38;4.90;;;1.50;;
16979;SDS011;42288;52.182;21.156;2023-05-29T08:09:07;3.07;;;1.57;;
16979;SDS011;42288;52.182;21.156;2023-05-29T08:11:33;3.80;;;1.70;;
16979;SDS011;42288;52.182;21.156;2023-05-29T08:13:58;2.43;;;1.40;;
16979;SDS011;42288;52.182;21.156;2023-05-29T08:16:24;3.37;;;1.63;;
16979;SDS011;42288;52.182;21.156;2023-05-29T08:18:52;7.18;;;2.00;;
16979;SDS011;42288;52.182;21.156;2023-05-29T08:21:17;3.40;;;1.60;;
16979;SDS011;42288;52.182;21.156;2023-05-29T08:23:43;3.17;;;1.70;;
16979;SDS011;42288;52.182;21.156;2023-05-29T08:26:09;5.67;;;1.70;;
16979;SDS011;42288;52.182;21.156;2023-05-29T08:28:35;5.47;;;2.40;;
16979;SDS011;42288;52.182;21.156;2023-05-29T08:31:00;2.83;;;1.60;;
16979;SDS011;42288;52.182;21.156;2023-05-29T08:33:26;7.70;;;1.80;;
16979;SDS011;42288;52.182;21.156;2023-05-29T08:35:52;6.28;;;2.40;;
16979;SDS011;42288;52.182;21.156;2023-05-29T08:38:17;8.85;;;2.08;;
16979;SDS011;42288;52.182;21.156;2023-05-29T08:40:43;6.03;;;2.27;;
16979;SDS011;42288;52.182;21.156;2023-05-29T08:43:12;6.17;;;2.03;;
16979;SDS011;42288;52.182;21.156;2023-05-29T08:45:43;6.25;;;2.05;;
16979;SDS011;42288;52.182;21.156;2023-05-29T08:48:10;3.47;;;1.40;;
16979;SDS011;42288;52.182;21.156;2023-05-29T08:50:45;3.90;;;1.90;;
16979;SDS011;42288;52.182;21.156;2023-05-29T08:53:12;20.80;;;1.77;;
16979;SDS011;42288;52.182;21.156;2023-05-29T08:55:41;7.13;;;1.87;;
16979;SDS011;42288;52.182;21.156;2023-05-29T08:58:07;4.30;;;1.60;;
16979;SDS011;42288;52.182;21.156;2023-05-29T09:00:34;4.23;;;1.40;;
16979;SDS011;42288;52.182;21.156;2023-05-29T09:03:00;4.50;;;1.77;;
16979;SDS011;42288;52.182;21.156;2023-05-29T09:05:26;8.30;;;1.67;;
16979;SDS011;42288;52.182;21.156;2023-05-29T09:07:53;2.95;;;1.58;;
16979;SDS011;42288;52.182;21.156;2023-05-29T09:10:18;6.55;;;2.17;;
16979;SDS011;42288;52.182;21.156;2023-05-29T09:12:46;6.82;;;1.95;;
16979;SDS011;42288;52.182;21.156;2023-05-29T09:15:19;9.93;;;1.90;;
16979;SDS011;42288;52.182;21.156;2023-05-29T09:17:50;5.53;;;1.90;;
16979;SDS011;42288;52.182;21.156;2023-05-29T09:20:17;5.50;;;1.90;;
16979;SDS011;42288;52.182;21.156;2023-05-29T09:22:51;6.15;;;1.55;;
16979;SDS011;42288;52.182;21.156;2023-05-29T09:25:19;5.38;;;1.88;;
16979;SDS011;42288;52.182;21.156;2023-05-29T09:27:48;22.90;;;2.92;;
16979;SDS011;42288;52.182;21.156;2023-05-29T09:33:16;6.60;;;2.05;;
16979;SDS011;42288;52.182;21.156;2023-05-29T09:35:43;4.75;;;1.85;;
16979;SDS011;42288;52.182;21.156;2023-05-29T09:38:10;2.17;;;1.40;;
16979;SDS011;42288;52.182;21.156;2023-05-29T09:40:38;4.50;;;2.00;;
16979;SDS011;42288;52.182;21.156;2023-05-29T09:43:12;6.15;;;1.92;;
16979;SDS011;42288;52.182;21.156;2023-05-29T09:45:39;5.88;;;1.73;;
16979;SDS011;42288;52.182;21.156;2023-05-29T09:48:06;5.65;;;1.95;;
16979;SDS011;42288;52.182;21.156;2023-05-29T09:50:36;5.97;;;1.90;;
16979;SDS011;42288;52.182;21.156;2023-05-29T09:53:02;3.60;;;1.60;;
16979;SDS011;42288;52.182;21.156;2023-05-29T09:55:28;8.38;;;2.17;;
16979;SDS011;42288;52.182;21.156;2023-05-29T09:57:56;5.80;;;1.80;;
16979;SDS011;42288;52.182;21.156;2023-05-29T10:00:23;7.32;;;1.98;;
16979;SDS011;42288;52.182;21.156;2023-05-29T10:02:49;7.13;;;2.05;;
16979;SDS011;42288;52.182;21.156;2023-05-29T10:05:15;5.70;;;1.50;;
16979;SDS011;42288;52.182;21.156;2023-05-29T10:07:45;6.18;;;1.85;;
16979;SDS011;42288;52.182;21.156;2023-05-29T10:10:12;8.30;;;2.22;;
16979;SDS011;42288;52.182;21.156;2023-05-29T10:12:39;9.55;;;1.90;;
16979;SDS011;42288;52.182;21.156;2023-05-29T10:15:13;5.65;;;1.98;;
16979;SDS011;42288;52.182;21.156;2023-05-29T10:17:43;7.75;;;2.05;;
16979;SDS011;42288;52.182;21.156;2023-05-29T10:20:21;9.05;;;2.03;;
16979;SDS011;42288;52.182;21.156;2023-05-29T10:22:49;8.27;;;1.67;;
16979;SDS011;42288;52.182;21.156;2023-05-29T10:25:18;7.78;;;2.10;;
16979;SDS011;42288;52.182;21.156;2023-05-29T10:27:45;5.22;;;1.88;;
16979;SDS011;42288;52.182;21.156;2023-05-29T10:32:59;2.95;;;1.58;;
16979;SDS011;42288;52.182;21.156;2023-05-29T10:35:39;9.55;;;2.25;;
16979;SDS011;42288;52.182;21.156;2023-05-29T10:38:13;9.63;;;1.85;;
16979;SDS011;42288;52.182;21.156;2023-05-29T10:40:42;2.65;;;1.50;;
16979;SDS011;42288;52.182;21.156;2023-05-29T10:43:08;5.93;;;2.00;;
16979;SDS011;42288;52.182;21.156;2023-05-29T10:50:53;4.10;;;1.85;;
16979;SDS011;42288;52.182;21.156;2023-05-29T10:53:23;5.50;;;1.80;;
16979;SDS011;42288;52.182;21.156;2023-05-29T10:55:51;9.75;;;1.80;;
16979;SDS011;42288;52.182;21.156;2023-05-29T10:58:18;7.90;;;1.60;;
16979;SDS011;42288;52.182;21.156;2023-05-29T11:00:49;6.03;;;1.98;;
16979;SDS011;42288;52.182;21.156;2023-05-29T11:03:17;5.22;;;1.80;;
16979;SDS011;42288;52.182;21.156;2023-05-29T11:08:47;5.72;;;1.85;;
16979;SDS011;42288;52.182;21.156;2023-05-29T11:13:52;4.13;;;1.80;;
16979;SDS011;42288;52.182;21.156;2023-05-29T11:18:51;6.22;;;2.00;;
16979;SDS011;42288;52.182;21.156;2023-05-29T11:24:15;7.95;;;2.00;;
16979;SDS011;42288;52.182;21.156;2023-05-29T11:26:49;4.32;;;1.95;;
16979;SDS011;42288;52.182;21.156;2023-05-29T11:29:22;7.32;;;1.98;;
16979;SDS011;42288;52.182;21.156;2023-05-29T11:31:49;4.72;;;1.77;;
16979;SDS011;42288;52.182;21.156;2023-05-29T11:34:22;5.18;;;1.60;;
16979;SDS011;42288;52.182;21.156;2023-05-29T11:36:51;5.28;;;1.88;;
16979;SDS011;42288;52.182;21.156;2023-05-29T11:39:16;10.80;;;2.45;;
16979;SDS011;42288;52.182;21.156;2023-05-29T11:41:42;6.65;;;2.22;;
16979;SDS011;42288;52.182;21.156;2023-05-29T11:44:07;7.28;;;2.13;;
16979;SDS011;42288;52.182;21.156;2023-05-29T11:46:33;8.18;;;1.70;;
16979;SDS011;42288;52.182;21.156;2023-05-29T11:48:59;4.85;;;2.10;;
16979;SDS011;42288;52.182;21.156;2023-05-29T11:51:25;7.68;;;2.13;;
16979;SDS011;42288;52.182;21.156;2023-05-29T11:53:51;4.18;;;2.10;;
16979;SDS011;42288;52.182;21.156;2023-05-29T11:56:29;2.85;;;1.83;;
16979;SDS011;42288;52.182;21.156;2023-05-29T11:58:55;4.78;;;2.08;;
16979;SDS011;42288;52.182;21.156;2023-05-29T12:01:24;4.80;;;1.85;;
16979;SDS011;42288;52.182;21.156;2023-05-29T12:03:51;11.23;;;2.63;;
16979;SDS011;42288;52.182;21.156;2023-05-29T12:06:33;5.60;;;2.33;;
16979;SDS011;42288;52.182;21.156;2023-05-29T12:09:02;11.60;;;2.50;;
16979;SDS011;42288;52.182;21.156;2023-05-29T12:11:29;6.47;;;2.15;;
16979;SDS011;42288;52.182;21.156;2023-05-29T12:13:55;8.35;;;2.30;;
16979;SDS011;42288;52.182;21.156;2023-05-29T12:16:25;4.70;;;2.22;;
16979;SDS011;42288;52.182;21.156;2023-05-29T12:18:52;5.50;;;2.30;;
16979;SDS011;42288;52.182;21.156;2023-05-29T12:21:19;6.78;;;2.45;;
16979;SDS011;42288;52.182;21.156;2023-05-29T12:23:46;8.80;;;2.53;;
16979;SDS011;42288;52.182;21.156;2023-05-29T12:26:12;11.35;;;2.60;;
16979;SDS011;42288;52.182;21.156;2023-05-29T12:28:42;5.38;;;2.47;;
16979;SDS011;42288;52.182;21.156;2023-05-29T12:31:09;7.45;;;2.10;;
16979;SDS011;42288;52.182;21.156;2023-05-29T12:33:35;9.35;;;3.13;;
16979;SDS011;42288;52.182;21.156;2023-05-29T12:36:01;9.52;;;2.28;;
16979;SDS011;42288;52.182;21.156;2023-05-29T12:38:31;4.45;;;2.17;;
16979;SDS011;42288;52.182;21.156;2023-05-29T12:40:57;4.18;;;1.92;;
16979;SDS011;42288;52.182;21.156;2023-05-29T12:43:23;13.38;;;2.72;;
16979;SDS011;42288;52.182;21.156;2023-05-29T12:45:54;9.15;;;2.85;;
16979;SDS011;42288;52.182;21.156;2023-05-29T12:48:21;7.35;;;2.97;;
16979;SDS011;42288;52.182;21.156;2023-05-29T12:50:51;10.05;;;3.13;;
16979;SDS011;42288;52.182;21.156;2023-05-29T12:53:17;7.43;;;3.30;;
16979;SDS011;42288;52.182;21.156;2023-05-29T12:55:43;11.10;;;2.88;;
16979;SDS011;42288;52.182;21.156;2023-05-29T12:58:13;7.03;;;2.80;;
16979;SDS011;42288;52.182;21.156;2023-05-29T13:00:41;11.43;;;2.85;;
16979;SDS011;42288;52.182;21.156;2023-05-29T13:03:08;9.07;;;3.08;;
16979;SDS011;42288;52.182;21.156;2023-05-29T13:05:34;12.30;;;3.03;;
16979;SDS011;42288;52.182;21.156;2023-05-29T13:08:00;9.35;;;3.13;;
16979;SDS011;42288;52.182;21.156;2023-05-29T13:10:26;4.95;;;2.38;;
16979;SDS011;42288;52.182;21.156;2023-05-29T13:12:53;8.52;;;2.63;;
16979;SDS011;42288;52.182;21.156;2023-05-29T13:15:23;7.30;;;2.60;;
16979;SDS011;42288;52.182;21.156;2023-05-29T13:17:49;8.30;;;2.80;;
16979;SDS011;42288;52.182;21.156;2023-05-29T13:20:15;8.73;;;2.90;;
16979;SDS011;42288;52.182;21.156;2023-05-29T13:22:41;9.20;;;2.60;;
16979;SDS011;42288;52.182;21.156;2023-05-29T13:25:08;7.57;;;3.13;;
16979;SDS011;42288;52.182;21.156;2023-05-29T13:27:39;8.20;;;2.35;;
16979;SDS011;42288;52.182;21.156;2023-05-29T13:30:06;11.80;;;2.50;;
16979;SDS011;42288;52.182;21.156;2023-05-29T13:32:33;11.02;;;3.17;;
16979;SDS011;42288;52.182;21.156;2023-05-29T13:34:59;7.10;;;2.70;;
16979;SDS011;42288;52.182;21.156;2023-05-29T13:37:25;8.50;;;2.50;;
16979;SDS011;42288;52.182;21.156;2023-05-29T13:39:52;10.18;;;3.03;;
16979;SDS011;42288;52.182;21.156;2023-05-29T13:42:19;4.85;;;2.25;;
16979;SDS011;42288;52.182;21.156;2023-05-29T13:44:45;6.25;;;2.63;;
16979;SDS011;42288;52.182;21.156;2023-05-29T13:47:12;7.43;;;2.38;;
16979;SDS011;42288;52.182;21.156;2023-05-29T13:49:38;8.60;;;2.95;;
16979;SDS011;42288;52.182;21.156;2023-05-29T13:52:03;7.40;;;2.88;;
16979;SDS011;42288;52.182;21.156;2023-05-29T13:54:29;13.00;;;2.67;;
16979;SDS011;42288;52.182;21.156;2023-05-29T13:56:57;6.03;;;2.40;;
16979;SDS011;42288;52.182;21.156;2023-05-29T13:59:23;8.95;;;2.30;;
16979;SDS011;42288;52.182;21.156;2023-05-29T14:01:49;10.90;;;2.63;;
16979;SDS011;42288;52.182;21.156;2023-05-29T14:04:15;8.98;;;2.60;;
16979;SDS011;42288;52.182;21.156;2023-05-29T14:06:40;10.32;;;2.45;;
16979;SDS011;42288;52.182;21.156;2023-05-29T14:09:06;8.20;;;2.72;;
16979;SDS011;42288;52.182;21.156;2023-05-29T14:11:35;8.30;;;2.25;;
16979;SDS011;42288;52.182;21.156;2023-05-29T14:14:02;27.70;;;3.47;;
16979;SDS011;42288;52.182;21.156;2023-05-29T14:16:28;9.05;;;2.55;;
16979;SDS011;42288;52.182;21.156;2023-05-29T14:18:54;9.05;;;2.75;;
16979;SDS011;42288;52.182;21.156;2023-05-29T14:21:19;8.50;;;2.88;;
16979;SDS011;42288;52.182;21.156;2023-05-29T14:23:45;12.45;;;2.88;;
16979;SDS011;42288;52.182;21.156;2023-05-29T14:26:11;9.43;;;3.15;;
16979;SDS011;42288;52.182;21.156;2023-05-29T14:28:37;8.82;;;2.75;;
16979;SDS011;42288;52.182;21.156;2023-05-29T14:31:04;8.35;;;2.75;;
16979;SDS011;42288;52.182;21.156;2023-05-29T14:33:29;8.55;;;4.40;;
16979;SDS011;42288;52.182;21.156;2023-05-29T14:35:55;5.03;;;2.78;;
16979;SDS011;42288;52.182;21.156;2023-05-29T14:38:21;16.13;;;6.20;;
16979;SDS011;42288;52.182;21.156;2023-05-29T14:40:47;8.45;;;2.80;;
16979;SDS011;42288;52.182;21.156;2023-05-29T14:43:12;17.02;;;4.03;;
16979;SDS011;42288;52.182;21.156;2023-05-29T14:45:38;9.88;;;2.13;;
16979;SDS011;42288;52.182;21.156;2023-05-29T14:48:03;6.55;;;2.30;;
16979;SDS011;42288;52.182;21.156;2023-05-29T14:50:29;8.48;;;2.75;;
16979;SDS011;42288;52.182;21.156;2023-05-29T14:52:55;5.63;;;2.47;;